Terminal Aerodrome Forecast
Issued by NWS

Current Version | Previous Version | Text Only | Print | Product List | Glossary Off
Versions: 1 2 3 4 5 6 7 8 9 10 11 12 13 14 15 16 17 18 19 20 21 22 23 24

499
FTUS41 KPBZ 212101 AAB
TAFMGW
TAF AMD
KMGW 212101Z 2121/2218 12004KT P6SM -SHRA SCT025 OVC035
      TEMPO 2121/2124 BKN025
     FM220000 VRB04KT 3SM -SHRA BR OVC008
     FM221500 33005KT P6SM SCT025 BKN100=

USA.gov is the U.S. government's official web portal to all federal, state and local government web resources and services.